createdAt,value
2018-08-31T00:00:39.343Z,95543.32
2018-08-31T00:03:10.586Z,95546.03
2018-08-31T00:05:54.188Z,95536.20
2018-08-31T00:11:40.507Z,95540.47
2018-08-31T00:14:11.129Z,95544.56
2018-08-31T00:16:41.800Z,95546.16
2018-08-31T00:19:12.602Z,95540.08
2018-08-31T00:21:43.849Z,95537.10
2018-08-31T00:24:24.570Z,95536.66
2018-08-31T00:27:05.745Z,95540.24
2018-08-31T00:29:52.174Z,95538.57
2018-08-31T00:33:04.926Z,95543.09
2018-08-31T00:36:22.710Z,95538.56
2018-08-31T00:39:11.692Z,95525.73
2018-08-31T00:42:04.004Z,95536.86
2018-08-31T00:45:40.122Z,95537.57
2018-08-31T00:48:10.799Z,95536.34
2018-08-31T00:50:41.446Z,95534.98
2018-08-31T00:53:12.153Z,95533.87
2018-08-31T00:55:42.730Z,95539.06
2018-08-31T00:58:13.718Z,95546.83
2018-08-31T01:00:45.705Z,95546.12
2018-08-31T01:03:16.114Z,95552.20
2018-08-31T01:05:46.440Z,95554.00
2018-08-31T01:08:17.409Z,95558.52
2018-08-31T01:10:47.790Z,95556.94
2018-08-31T01:13:18.221Z,95556.25
2018-08-31T01:15:48.719Z,95560.55
2018-08-31T01:18:19.621Z,95569.89
2018-08-31T01:20:50.167Z,95568.20
2018-08-31T01:23:20.715Z,95562.81
2018-08-31T01:25:51.105Z,95565.62
2018-08-31T01:28:22.308Z,95568.53
2018-08-31T01:30:52.886Z,95566.83
2018-08-31T01:33:23.628Z,95567.52
2018-08-31T01:35:54.310Z,95568.53
2018-08-31T01:38:25.251Z,95563.80
2018-08-31T01:40:55.768Z,95563.48
2018-08-31T01:43:26.311Z,95568.42
2018-08-31T01:45:56.977Z,95569.21
2018-08-31T01:48:28.092Z,95569.30
2018-08-31T01:51:03.731Z,95566.28
2018-08-31T01:53:34.473Z,95562.12
2018-08-31T01:56:05.010Z,95562.67
2018-08-31T01:58:35.919Z,95564.65
2018-08-31T02:01:06.751Z,95567.84
2018-08-31T02:03:37.252Z,95566.04
2018-08-31T02:06:07.574Z,95562.44
2018-08-31T02:08:43.823Z,95559.84
2018-08-31T02:11:14.458Z,95567.61
2018-08-31T02:13:45.319Z,95562.33
2018-08-31T02:16:15.764Z,95557.30
2018-08-31T02:18:47.412Z,95563.52
2018-08-31T02:21:18.210Z,95564.86
2018-08-31T02:23:48.838Z,95560.10
2018-08-31T02:26:19.256Z,95566.30
2018-08-31T02:28:50.990Z,95568.98
2018-08-31T02:31:21.735Z,95561.00
2018-08-31T02:33:52.476Z,95574.47
2018-08-31T02:36:23.168Z,95560.31
2018-08-31T02:38:55.056Z,95557.96
2018-08-31T02:41:25.775Z,95555.37
2018-08-31T02:43:56.159Z,95559.25
2018-08-31T02:46:26.722Z,95554.41
2018-08-31T02:48:57.376Z,95556.28
2018-08-31T02:51:27.887Z,95558.08
2018-08-31T02:53:58.800Z,95561.81
2018-08-31T02:56:29.569Z,95565.86
2018-08-31T02:59:00.015Z,95571.70
2018-08-31T03:01:30.598Z,95568.76
2018-08-31T03:04:00.901Z,95571.11
2018-08-31T03:06:31.835Z,95570.56
2018-08-31T03:09:02.553Z,95567.83
2018-08-31T03:11:33.139Z,95566.67
2018-08-31T03:14:03.603Z,95568.72
2018-08-31T03:16:34.016Z,95571.86
2018-08-31T03:19:05.350Z,95568.27
2018-08-31T03:21:36.131Z,95570.27
2018-08-31T03:24:06.963Z,95570.17
2018-08-31T03:26:37.710Z,95569.17
2018-08-31T03:29:08.319Z,95571.72
2018-08-31T03:31:38.923Z,95574.17
2018-08-31T03:34:09.378Z,95582.75
2018-08-31T03:36:39.867Z,95584.09
2018-08-31T03:39:11.510Z,95583.31
2018-08-31T03:41:42.170Z,95585.34
2018-08-31T03:44:12.846Z,95583.09
2018-08-31T03:46:43.534Z,95589.68
2018-08-31T03:49:14.880Z,95586.41
2018-08-31T03:51:45.510Z,95586.39
2018-08-31T03:54:16.494Z,95589.80
2018-08-31T03:56:47.178Z,95590.64
2018-08-31T03:59:18.507Z,95586.59
2018-08-31T04:01:48.841Z,95592.19
2018-08-31T04:04:19.339Z,95543.27
2018-08-31T04:06:50.009Z,95592.00
2018-08-31T04:09:21.299Z,95597.22
2018-08-31T04:11:51.821Z,95600.52
2018-08-31T04:14:22.718Z,95599.97
2018-08-31T04:16:53.263Z,95592.83
2018-08-31T04:19:24.178Z,95600.27
2018-08-31T04:21:54.668Z,95601.52
2018-08-31T04:24:25.581Z,95601.13
2018-08-31T04:26:56.079Z,95599.41
2018-08-31T04:29:27.211Z,95607.22
2018-08-31T04:31:57.505Z,95607.61
2018-08-31T04:34:28.143Z,95608.80
2018-08-31T04:36:58.804Z,95612.16
2018-08-31T04:39:30.069Z,95610.88
2018-08-31T04:42:00.827Z,95613.25
2018-08-31T04:44:31.535Z,95615.59
2018-08-31T04:47:02.394Z,95615.45
2018-08-31T04:49:33.546Z,95615.47
2018-08-31T04:52:03.859Z,95613.41
2018-08-31T04:54:34.851Z,95613.71
2018-08-31T04:57:05.605Z,95616.90
2018-08-31T04:59:36.926Z,95621.81
2018-08-31T05:02:07.474Z,95618.08
2018-08-31T05:04:37.891Z,95615.59
2018-08-31T05:07:08.383Z,95617.95
2018-08-31T05:09:39.567Z,95613.02
2018-08-31T05:12:10.581Z,95613.66
2018-08-31T05:14:41.237Z,95617.02
2018-08-31T05:17:11.841Z,95611.22
2018-08-31T05:19:43.487Z,95617.18
2018-08-31T05:22:14.321Z,95614.46
2018-08-31T05:24:44.702Z,95614.70
2018-08-31T05:27:15.108Z,95610.41
2018-08-31T05:29:46.247Z,95611.01
2018-08-31T05:32:16.468Z,95616.70
2018-08-31T05:34:46.846Z,95619.94
2018-08-31T05:37:17.473Z,95619.39
2018-08-31T05:39:48.067Z,95610.97
2018-08-31T05:42:18.742Z,95618.09
2018-08-31T05:44:49.355Z,95615.17
2018-08-31T05:47:20.043Z,95610.98
2018-08-31T05:49:50.874Z,95612.12
2018-08-31T05:52:21.559Z,95614.03
2018-08-31T05:54:52.229Z,95608.16
2018-08-31T05:57:23.066Z,95603.69
2018-08-31T05:59:53.921Z,95608.06
2018-08-31T06:02:24.503Z,95601.17
2018-08-31T06:04:55.404Z,95611.88
2018-08-31T06:07:25.418Z,95607.12
2018-08-31T06:09:56.542Z,95611.09
2018-08-31T06:12:26.474Z,95609.39
2018-08-31T06:14:56.325Z,95612.66
2018-08-31T06:17:26.130Z,95607.35
2018-08-31T06:19:57.037Z,95606.70
2018-08-31T06:22:27.127Z,95609.60
2018-08-31T06:24:57.041Z,95612.34
2018-08-31T06:27:26.883Z,95605.80
2018-08-31T06:29:57.801Z,95608.75
2018-08-31T06:32:27.613Z,95606.17
2018-08-31T06:34:57.434Z,95602.11
2018-08-31T06:37:27.303Z,95604.74
2018-08-31T06:39:57.478Z,95601.50
2018-08-31T06:42:27.406Z,95593.55
2018-08-31T06:44:57.072Z,95600.52
2018-08-31T06:47:26.916Z,95597.53
2018-08-31T06:49:56.775Z,95589.70
2018-08-31T06:52:26.636Z,95595.19
2018-08-31T06:54:56.806Z,95593.96
2018-08-31T06:57:26.709Z,95596.00
2018-08-31T06:59:56.658Z,95592.13
2018-08-31T07:02:26.463Z,95589.78
2018-08-31T07:04:56.235Z,95596.72
2018-08-31T07:07:26.104Z,95590.38
2018-08-31T07:09:56.019Z,95586.27
2018-08-31T07:12:25.862Z,95582.70
2018-08-31T07:14:55.677Z,95588.44
2018-08-31T07:17:25.570Z,95584.14
2018-08-31T07:19:55.453Z,95583.91
2018-08-31T07:22:25.300Z,95586.38
2018-08-31T07:24:55.069Z,95589.09
2018-08-31T07:27:24.812Z,95582.88
2018-08-31T07:29:54.711Z,95584.52
2018-08-31T07:32:24.626Z,95581.15
2018-08-31T07:34:54.594Z,95585.55
2018-08-31T07:37:24.299Z,95580.77
2018-08-31T07:39:54.150Z,95572.50
2018-08-31T07:42:24.355Z,95571.95
2018-08-31T07:44:54.293Z,95570.23
2018-08-31T07:47:24.309Z,95570.16
2018-08-31T07:49:54.159Z,95563.96
2018-08-31T07:52:23.910Z,95570.11
2018-08-31T07:54:53.801Z,95566.00
2018-08-31T07:57:23.774Z,95561.97
2018-08-31T07:59:53.632Z,95562.61
2018-08-31T08:02:23.887Z,95559.27
2018-08-31T08:04:54.390Z,95560.84
2018-08-31T08:07:25.145Z,95518.42
2018-08-31T08:09:56.382Z,95552.38
2018-08-31T08:12:26.988Z,95555.36
2018-08-31T08:14:57.791Z,95554.91
2018-08-31T08:17:28.935Z,95555.52
2018-08-31T08:19:59.801Z,95546.23
2018-08-31T08:22:30.583Z,95544.71
2018-08-31T08:25:01.137Z,95551.28
2018-08-31T08:27:31.525Z,95543.49
2018-08-31T08:30:02.193Z,95540.50
2018-08-31T08:32:32.949Z,95543.02
2018-08-31T08:35:03.719Z,95540.95
2018-08-31T08:37:34.192Z,95542.64
2018-08-31T08:40:05.251Z,95532.34
2018-08-31T08:42:35.868Z,95533.53
2018-08-31T08:45:05.974Z,95526.05
2018-08-31T08:47:35.835Z,95523.36
2018-08-31T08:50:07.009Z,95521.73
2018-08-31T08:52:36.866Z,95518.48
2018-08-31T08:55:06.628Z,95519.28
2018-08-31T08:57:36.864Z,95521.93
2018-08-31T09:00:07.545Z,95514.56
2018-08-31T09:02:37.552Z,95508.97
2018-08-31T09:05:07.468Z,95502.48
2018-08-31T09:07:37.278Z,95503.34
2018-08-31T09:10:08.859Z,95498.56
2018-08-31T09:12:38.984Z,95507.25
2018-08-31T09:15:09.347Z,95496.84
2018-08-31T09:17:40.149Z,95492.51
2018-08-31T09:20:10.731Z,95496.45
2018-08-31T09:22:41.298Z,95493.22
2018-08-31T09:25:11.931Z,95488.66
2018-08-31T09:27:42.477Z,95479.87
2018-08-31T09:30:18.881Z,95481.30
2018-08-31T09:32:49.427Z,95479.03
2018-08-31T09:35:20.235Z,95476.58
2018-08-31T09:37:50.563Z,95478.10
2018-08-31T09:40:20.699Z,95475.27
2018-08-31T09:42:50.460Z,95469.63
2018-08-31T09:45:20.228Z,95466.67
2018-08-31T09:47:50.063Z,95467.19
2018-08-31T09:50:19.868Z,95461.08
2018-08-31T09:52:49.727Z,95459.78
2018-08-31T09:55:19.567Z,95457.73
2018-08-31T09:57:49.638Z,95457.81
2018-08-31T10:02:25.378Z,95454.42
2018-08-31T10:04:55.192Z,95450.55
2018-08-31T10:07:25.105Z,95440.89
2018-08-31T10:09:54.859Z,95441.98
2018-08-31T10:12:24.598Z,95441.41
2018-08-31T10:14:54.410Z,95436.77
2018-08-31T10:17:24.098Z,95433.89
2018-08-31T10:19:53.847Z,95436.05
2018-08-31T10:22:23.699Z,95431.87
2018-08-31T10:24:53.471Z,95428.19
2018-08-31T10:27:23.242Z,95432.46
2018-08-31T10:29:53.161Z,95433.75
2018-08-31T10:32:22.937Z,95424.20
2018-08-31T10:34:52.656Z,95418.58
2018-08-31T10:37:22.535Z,95417.12
2018-08-31T10:39:52.311Z,95424.00
2018-08-31T10:42:22.269Z,95418.79
2018-08-31T10:44:52.112Z,95412.59
2018-08-31T10:47:21.734Z,95414.33
2018-08-31T10:49:51.364Z,95405.13
2018-08-31T10:52:21.349Z,95408.16
2018-08-31T10:54:51.266Z,95371.79
2018-08-31T10:57:21.147Z,95403.40
2018-08-31T10:59:51.827Z,95401.41
2018-08-31T11:02:21.648Z,95402.60
2018-08-31T11:04:51.663Z,95401.49
2018-08-31T11:07:21.475Z,95396.48
2018-08-31T11:09:51.319Z,95397.56
2018-08-31T11:12:21.072Z,95393.22
2018-08-31T11:14:51.082Z,95391.34
2018-08-31T11:17:20.866Z,95385.30
2018-08-31T11:19:50.640Z,95385.24
2018-08-31T11:22:20.259Z,95386.44
2018-08-31T11:24:50.175Z,95381.09
2018-08-31T11:27:20.112Z,95379.02
2018-08-31T11:29:49.979Z,95374.79
2018-08-31T11:32:19.939Z,95374.97
2018-08-31T11:34:49.799Z,95375.92
2018-08-31T11:37:19.527Z,95373.25
2018-08-31T11:39:49.330Z,95377.36
2018-08-31T11:42:19.225Z,95374.44
2018-08-31T11:44:49.088Z,95364.98
2018-08-31T11:47:19.057Z,95368.56
2018-08-31T11:49:48.939Z,95364.54
2018-08-31T11:52:18.857Z,95360.30
2018-08-31T11:54:48.707Z,95354.02
2018-08-31T11:57:18.736Z,95352.67
2018-08-31T11:59:48.581Z,95351.09
2018-08-31T12:02:18.878Z,95345.09
2018-08-31T12:04:48.689Z,95339.28
2018-08-31T12:07:18.545Z,95335.34
2018-08-31T12:09:48.447Z,95333.59
2018-08-31T12:12:18.228Z,95324.62
2018-08-31T12:14:48.051Z,95320.56
2018-08-31T12:17:17.877Z,95323.77
2018-08-31T12:19:47.850Z,95320.38
2018-08-31T12:22:17.683Z,95320.73
2018-08-31T12:24:47.470Z,95307.95
2018-08-31T12:27:17.150Z,95309.89
2018-08-31T12:29:46.917Z,95305.42
2018-08-31T12:32:16.718Z,95308.47
2018-08-31T12:34:46.605Z,95299.66
2018-08-31T12:37:16.596Z,95294.27
2018-08-31T12:39:46.361Z,95295.58
2018-08-31T12:42:16.179Z,95297.98
2018-08-31T12:44:46.159Z,95297.08
2018-08-31T12:47:15.755Z,95293.89
2018-08-31T12:49:45.661Z,95289.58
2018-08-31T12:52:15.323Z,95291.14
2018-08-31T12:54:45.099Z,95289.72
2018-08-31T12:57:14.865Z,95287.06
2018-08-31T12:59:48.746Z,95293.60
2018-08-31T13:02:18.539Z,95280.30
2018-08-31T13:04:48.898Z,95282.83
2018-08-31T13:07:18.656Z,95280.31
2018-08-31T13:09:49.091Z,95274.05
2018-08-31T13:12:18.920Z,95280.84
2018-08-31T13:14:48.902Z,95274.47
2018-08-31T13:17:18.768Z,95270.88
2018-08-31T13:19:48.640Z,95268.12
2018-08-31T13:22:18.506Z,95275.18
2018-08-31T13:24:48.274Z,95278.26
2018-08-31T13:27:18.420Z,95276.10
2018-08-31T13:29:48.243Z,95277.14
2018-08-31T13:32:18.063Z,95273.17
2018-08-31T13:34:47.848Z,95272.61
2018-08-31T13:37:17.507Z,95276.25
2018-08-31T13:39:47.240Z,95277.54
2018-08-31T13:42:16.976Z,95263.42
2018-08-31T13:44:46.724Z,95271.66
2018-08-31T13:47:16.909Z,95276.52
2018-08-31T13:49:46.616Z,95272.54
2018-08-31T13:52:16.467Z,95270.27
2018-08-31T13:54:46.286Z,95264.57
2018-08-31T13:57:16.066Z,95269.98
2018-08-31T13:59:46.830Z,95270.73
2018-08-31T14:02:16.814Z,95268.31
2018-08-31T14:04:47.575Z,95262.64
2018-08-31T14:07:18.181Z,95264.35
2018-08-31T14:09:49.563Z,95259.33
2018-08-31T14:12:20.164Z,95265.28
2018-08-31T14:14:50.758Z,95261.91
2018-08-31T14:17:21.075Z,95259.72
2018-08-31T14:19:52.490Z,95260.08
2018-08-31T14:22:23.596Z,95253.89
2018-08-31T14:24:53.698Z,95251.52
2018-08-31T14:27:24.445Z,95251.28
2018-08-31T14:29:55.997Z,95251.08
2018-08-31T14:32:26.427Z,95251.13
2018-08-31T14:34:56.918Z,95250.40
2018-08-31T14:37:27.453Z,95250.45
2018-08-31T14:39:58.281Z,95246.25
2018-08-31T14:42:28.637Z,95247.94
2018-08-31T14:44:59.351Z,95249.52
2018-08-31T14:47:29.793Z,95242.27
2018-08-31T14:50:00.952Z,95248.63
2018-08-31T14:52:31.815Z,95240.48
2018-08-31T14:55:02.397Z,95243.59
2018-08-31T14:57:32.732Z,95237.62
2018-08-31T15:00:03.837Z,95236.09
2018-08-31T15:02:34.249Z,95240.95
2018-08-31T15:05:04.911Z,95245.69
2018-08-31T15:07:35.717Z,95244.30
2018-08-31T15:10:06.795Z,95247.13
2018-08-31T15:12:37.415Z,95246.62
2018-08-31T15:15:08.111Z,95249.45
2018-08-31T15:17:38.419Z,95238.59
2018-08-31T15:20:10.523Z,95240.30
2018-08-31T15:22:41.452Z,95243.50
2018-08-31T15:25:12.171Z,95242.81
2018-08-31T15:27:42.473Z,95254.11
2018-08-31T15:30:14.197Z,95245.63
2018-08-31T15:33:15.766Z,95248.89
2018-08-31T15:35:46.126Z,95245.11
2018-08-31T15:38:16.892Z,95251.87
2018-08-31T15:40:47.281Z,95250.69
2018-08-31T15:43:17.708Z,95252.23
2018-08-31T15:45:47.417Z,95256.02
2018-08-31T15:48:18.018Z,95261.02
2018-08-31T15:50:47.778Z,95262.62
2018-08-31T15:53:17.679Z,95267.15
2018-08-31T15:55:47.459Z,95269.02
2018-08-31T15:58:17.278Z,95274.73
2018-08-31T16:00:47.359Z,95269.48
2018-08-31T16:03:17.095Z,95267.30
2018-08-31T16:06:49.760Z,95272.04
2018-08-31T16:09:20.157Z,95275.56
2018-08-31T16:11:49.874Z,95268.13
2018-08-31T16:14:19.670Z,95276.73
2018-08-31T16:16:49.534Z,95273.27
2018-08-31T16:19:19.415Z,95276.62
2018-08-31T16:21:49.328Z,95282.25
2018-08-31T16:24:19.228Z,95285.14
2018-08-31T16:26:48.966Z,95283.07
2018-08-31T16:29:18.752Z,95280.63
2018-08-31T16:31:48.565Z,95280.50
2018-08-31T16:34:18.458Z,95284.27
2018-08-31T16:36:48.365Z,95282.27
2018-08-31T16:39:18.288Z,95293.80
2018-08-31T16:41:48.070Z,95294.20
2018-08-31T16:44:18.003Z,95294.17
2018-08-31T16:46:47.968Z,95307.20
2018-08-31T16:49:17.759Z,95309.69
2018-08-31T16:51:47.753Z,95313.20
2018-08-31T16:54:17.540Z,95320.63
2018-08-31T16:56:47.352Z,95321.80
2018-08-31T16:59:17.221Z,95325.28
2018-08-31T17:01:47.067Z,95329.41
2018-08-31T17:04:16.957Z,95336.52
2018-08-31T17:06:46.777Z,95332.48
2018-08-31T17:09:16.572Z,95339.09
2018-08-31T17:11:46.831Z,95342.55
2018-08-31T17:14:16.650Z,95345.66
2018-08-31T17:16:47.561Z,95357.27
2018-08-31T17:19:17.363Z,95351.03
2018-08-31T17:21:47.194Z,95359.42
2018-08-31T17:24:17.079Z,95357.92
2018-08-31T17:26:52.069Z,95363.59
2018-08-31T17:29:26.808Z,95367.31
2018-08-31T17:32:01.488Z,95372.80
2018-08-31T17:34:37.093Z,95378.92
2018-08-31T17:37:12.073Z,95387.75
2018-08-31T17:39:41.967Z,95384.06
2018-08-31T17:42:12.599Z,95391.99
2018-08-31T17:44:43.223Z,95392.57
2018-08-31T17:47:13.105Z,95396.94
2018-08-31T17:49:42.991Z,95396.81
2018-08-31T17:52:12.610Z,95397.99
2018-08-31T17:54:42.339Z,95406.38
2018-08-31T17:57:12.252Z,95410.53
2018-08-31T17:59:42.190Z,95413.88
2018-08-31T18:02:12.129Z,95418.70
2018-08-31T18:04:41.908Z,95244.83
2018-08-31T18:07:11.756Z,95434.53
2018-08-31T18:09:41.738Z,95444.89
2018-08-31T18:12:11.918Z,95448.27
2018-08-31T18:14:41.675Z,95448.88
2018-08-31T18:17:11.548Z,95457.70
2018-08-31T18:19:41.266Z,95456.02
2018-08-31T18:22:11.116Z,95470.78
2018-08-31T18:24:40.802Z,95470.45
2018-08-31T18:27:10.653Z,95470.66
2018-08-31T18:29:40.521Z,95474.53
2018-08-31T18:32:10.370Z,95478.73
2018-08-31T18:34:40.273Z,95490.30
2018-08-31T18:37:10.121Z,95487.16
2018-08-31T18:39:39.955Z,95488.42
2018-08-31T18:42:09.818Z,95490.68
2018-08-31T18:44:39.504Z,95488.24
2018-08-31T18:47:09.324Z,95497.67
2018-08-31T18:49:39.163Z,95494.27
2018-08-31T18:52:09.121Z,95495.56
2018-08-31T18:54:38.903Z,95497.70
2018-08-31T18:57:08.834Z,95498.53
2018-08-31T18:59:38.610Z,95498.63
2018-08-31T19:02:08.499Z,95502.31
2018-08-31T19:04:38.297Z,95502.75
2018-08-31T19:07:08.234Z,95496.37
2018-08-31T19:09:38.217Z,95495.69
2018-08-31T19:12:07.952Z,95493.98
2018-08-31T19:14:38.053Z,95499.95
2018-08-31T19:17:07.788Z,95500.19
2018-08-31T19:19:37.692Z,95502.77
2018-08-31T19:22:07.595Z,95499.31
2018-08-31T19:24:37.392Z,95502.59
2018-08-31T19:27:07.448Z,95502.04
2018-08-31T19:29:37.215Z,95508.95
2018-08-31T19:32:07.123Z,95507.31
2018-08-31T19:34:37.063Z,95501.07
2018-08-31T19:37:06.927Z,95502.84
2018-08-31T19:39:36.917Z,95513.39
2018-08-31T19:42:06.671Z,95512.25
2018-08-31T19:44:36.445Z,95510.77
2018-08-31T19:47:06.403Z,95512.06
2018-08-31T19:49:36.155Z,95517.08
2018-08-31T19:52:06.084Z,95520.29
2018-08-31T19:54:35.866Z,95523.25
2018-08-31T19:57:05.740Z,95527.23
2018-08-31T19:59:35.465Z,95534.59
2018-08-31T20:02:05.368Z,95526.08
2018-08-31T20:04:35.115Z,95524.55
2018-08-31T20:07:05.119Z,95546.22
2018-08-31T20:09:34.970Z,95526.30
2018-08-31T20:12:04.904Z,95529.41
2018-08-31T20:14:34.715Z,95528.89
2018-08-31T20:17:04.852Z,95532.81
2018-08-31T20:19:34.674Z,95539.64
2018-08-31T20:22:04.853Z,95547.95
2018-08-31T20:24:34.730Z,95541.38
2018-08-31T20:27:04.787Z,95543.97
2018-08-31T20:29:34.737Z,95549.75
2018-08-31T20:32:04.557Z,95550.02
2018-08-31T20:34:34.402Z,95550.39
2018-08-31T20:37:04.104Z,95541.82
2018-08-31T20:39:33.874Z,95543.28
2018-08-31T20:42:03.683Z,95546.22
2018-08-31T20:44:33.424Z,95553.97
2018-08-31T20:47:03.396Z,95554.19
2018-08-31T20:49:33.072Z,95557.22
2018-08-31T20:52:02.978Z,95552.86
2018-08-31T20:54:32.805Z,95562.38
2018-08-31T20:57:02.676Z,95555.59
2018-08-31T20:59:32.672Z,95559.44
2018-08-31T21:02:02.527Z,95556.77
2018-08-31T21:04:32.453Z,95561.03
2018-08-31T21:07:02.218Z,95561.55
2018-08-31T21:09:32.019Z,95557.48
2018-08-31T21:12:01.873Z,95560.28
2018-08-31T21:14:31.712Z,95550.52
2018-08-31T21:17:01.722Z,95559.03
2018-08-31T21:19:31.898Z,95556.87
2018-08-31T21:22:01.686Z,95556.91
2018-08-31T21:24:31.570Z,95555.80
2018-08-31T21:27:01.199Z,95556.08
2018-08-31T21:29:31.232Z,95554.30
2018-08-31T21:32:01.013Z,95554.18
2018-08-31T21:34:30.784Z,95556.32
2018-08-31T21:37:00.657Z,95558.34
2018-08-31T21:39:30.579Z,95561.91
2018-08-31T21:42:00.969Z,95564.95
2018-08-31T21:44:30.772Z,95569.26
2018-08-31T21:47:00.490Z,95566.38
2018-08-31T21:49:30.408Z,95575.30
2018-08-31T21:52:00.298Z,95575.08
2018-08-31T21:54:31.050Z,95572.59
2018-08-31T21:57:00.915Z,95573.02
2018-08-31T21:59:30.774Z,95572.65
2018-08-31T22:02:00.652Z,95573.33
2018-08-31T22:04:33.332Z,95586.23
2018-08-31T22:08:32.776Z,95578.48
2018-08-31T22:11:02.673Z,95586.89
2018-08-31T22:13:32.547Z,95585.58
2018-08-31T22:16:03.124Z,95581.75
2018-08-31T22:18:33.930Z,95584.42
2018-08-31T22:21:04.327Z,95586.33
2018-08-31T22:23:34.496Z,95586.50
2018-08-31T22:26:04.434Z,95587.09
2018-08-31T22:28:34.213Z,95582.11
2018-08-31T22:31:04.196Z,95583.89
2018-08-31T22:33:33.996Z,95530.84
2018-08-31T22:36:03.899Z,95581.88
2018-08-31T22:38:33.792Z,95585.58
2018-08-31T22:41:03.641Z,95583.00
2018-08-31T22:43:38.930Z,95578.01
2018-08-31T22:46:09.446Z,95581.88
2018-08-31T22:48:40.063Z,95578.97
2018-08-31T22:51:10.503Z,95580.23
2018-08-31T22:53:41.527Z,95583.98
2018-08-31T22:56:12.455Z,95581.41
2018-08-31T22:58:43.050Z,95580.45
2018-08-31T23:01:12.855Z,95583.16
2018-08-31T23:03:43.270Z,95582.31
2018-08-31T23:06:13.298Z,95582.80
2018-08-31T23:08:43.126Z,95585.58
2018-08-31T23:11:13.286Z,95583.30
2018-08-31T23:13:44.750Z,95583.02
2018-08-31T23:16:14.816Z,95577.31
2018-08-31T23:18:45.553Z,95576.86
2018-08-31T23:21:16.355Z,95583.14
2018-08-31T23:23:49.203Z,95573.66
2018-08-31T23:26:19.531Z,95583.20
2018-08-31T23:28:49.361Z,95588.36
2018-08-31T23:31:19.211Z,95588.66
2018-08-31T23:33:49.486Z,95589.04
2018-08-31T23:36:19.287Z,95592.07
2018-08-31T23:38:49.063Z,95593.65
2018-08-31T23:41:20.407Z,95595.87
2018-08-31T23:43:50.899Z,95592.20
2018-08-31T23:46:20.743Z,95593.05
2018-08-31T23:48:50.896Z,95591.31
2018-08-31T23:51:21.179Z,95595.69
2018-08-31T23:53:52.391Z,95347.41
2018-08-31T23:56:22.914Z,95596.00
2018-08-31T23:58:53.515Z,95593.97
